sensor_id;sensor_type;location;lat;lon;timestamp;P1;durP1;ratioP1;P2;durP2;ratioP2
81312;SDS011;70780;52.722;5.724;2023-07-30T00:02:19;32.78;;;20.92;;
81312;SDS011;70780;52.722;5.724;2023-07-30T00:04:48;33.40;;;19.33;;
81312;SDS011;70780;52.722;5.724;2023-07-30T00:07:17;29.27;;;19.40;;
81312;SDS011;70780;52.722;5.724;2023-07-30T00:09:47;26.50;;;16.88;;
81312;SDS011;70780;52.722;5.724;2023-07-30T00:12:18;23.83;;;15.77;;
81312;SDS011;70780;52.722;5.724;2023-07-30T00:14:48;22.48;;;15.05;;
81312;SDS011;70780;52.722;5.724;2023-07-30T00:17:17;20.67;;;13.38;;
81312;SDS011;70780;52.722;5.724;2023-07-30T00:19:46;21.45;;;13.00;;
81312;SDS011;70780;52.722;5.724;2023-07-30T00:22:16;17.88;;;11.65;;
81312;SDS011;70780;52.722;5.724;2023-07-30T00:24:45;19.98;;;11.52;;
81312;SDS011;70780;52.722;5.724;2023-07-30T00:27:14;21.65;;;11.32;;
81312;SDS011;70780;52.722;5.724;2023-07-30T00:29:46;18.17;;;10.38;;
81312;SDS011;70780;52.722;5.724;2023-07-30T00:32:15;16.70;;;10.48;;
81312;SDS011;70780;52.722;5.724;2023-07-30T00:34:45;15.90;;;9.27;;
81312;SDS011;70780;52.722;5.724;2023-07-30T00:37:14;15.60;;;9.82;;
81312;SDS011;70780;52.722;5.724;2023-07-30T00:39:43;14.77;;;9.00;;
81312;SDS011;70780;52.722;5.724;2023-07-30T00:42:12;12.80;;;7.85;;
81312;SDS011;70780;52.722;5.724;2023-07-30T00:44:42;12.43;;;7.40;;
81312;SDS011;70780;52.722;5.724;2023-07-30T00:47:14;14.00;;;8.75;;
81312;SDS011;70780;52.722;5.724;2023-07-30T00:49:43;12.40;;;7.30;;
81312;SDS011;70780;52.722;5.724;2023-07-30T00:52:12;12.30;;;7.90;;
81312;SDS011;70780;52.722;5.724;2023-07-30T00:54:42;12.63;;;6.88;;
81312;SDS011;70780;52.722;5.724;2023-07-30T00:57:11;10.20;;;5.95;;
81312;SDS011;70780;52.722;5.724;2023-07-30T00:59:41;15.57;;;6.88;;
81312;SDS011;70780;52.722;5.724;2023-07-30T01:02:10;14.18;;;6.53;;
81312;SDS011;70780;52.722;5.724;2023-07-30T01:07:12;10.50;;;5.82;;
81312;SDS011;70780;52.722;5.724;2023-07-30T01:09:41;10.65;;;5.05;;
81312;SDS011;70780;52.722;5.724;2023-07-30T01:12:11;12.10;;;5.55;;
81312;SDS011;70780;52.722;5.724;2023-07-30T01:14:42;11.18;;;4.93;;
81312;SDS011;70780;52.722;5.724;2023-07-30T01:17:15;9.38;;;4.82;;
81312;SDS011;70780;52.722;5.724;2023-07-30T01:19:45;9.23;;;4.68;;
81312;SDS011;70780;52.722;5.724;2023-07-30T01:22:17;9.65;;;5.05;;
81312;SDS011;70780;52.722;5.724;2023-07-30T01:24:47;8.98;;;4.20;;
81312;SDS011;70780;52.722;5.724;2023-07-30T01:27:18;8.07;;;4.53;;
81312;SDS011;70780;52.722;5.724;2023-07-30T01:29:53;7.43;;;4.20;;
81312;SDS011;70780;52.722;5.724;2023-07-30T01:32:27;7.88;;;4.47;;
81312;SDS011;70780;52.722;5.724;2023-07-30T01:34:58;8.68;;;3.55;;
81312;SDS011;70780;52.722;5.724;2023-07-30T01:37:32;9.32;;;3.67;;
81312;SDS011;70780;52.722;5.724;2023-07-30T01:40:02;13.00;;;2.75;;
81312;SDS011;70780;52.722;5.724;2023-07-30T01:42:33;11.63;;;2.42;;
81312;SDS011;70780;52.722;5.724;2023-07-30T01:45:02;8.55;;;2.45;;
81312;SDS011;70780;52.722;5.724;2023-07-30T01:47:32;10.65;;;2.13;;
81312;SDS011;70780;52.722;5.724;2023-07-30T01:50:02;13.38;;;2.83;;
81312;SDS011;70780;52.722;5.724;2023-07-30T01:52:34;11.63;;;2.63;;
81312;SDS011;70780;52.722;5.724;2023-07-30T01:55:04;9.57;;;1.90;;
81312;SDS011;70780;52.722;5.724;2023-07-30T11:48:35;2.00;;;0.50;;
81312;SDS011;70780;52.722;5.724;2023-07-30T11:51:04;5.75;;;1.67;;
81312;SDS011;70780;52.722;5.724;2023-07-30T11:56:19;3.40;;;0.70;;
81312;SDS011;70780;52.722;5.724;2023-07-30T11:58:51;2.38;;;0.80;;
81312;SDS011;70780;52.722;5.724;2023-07-30T12:01:23;5.15;;;1.00;;
81312;SDS011;70780;52.722;5.724;2023-07-30T12:03:59;4.53;;;0.77;;
81312;SDS011;70780;52.722;5.724;2023-07-30T12:06:38;3.38;;;0.70;;
81312;SDS011;70780;52.722;5.724;2023-07-30T12:09:12;4.93;;;0.80;;
81312;SDS011;70780;52.722;5.724;2023-07-30T12:11:46;2.88;;;0.75;;
81312;SDS011;70780;52.722;5.724;2023-07-30T12:14:16;4.25;;;0.73;;
81312;SDS011;70780;52.722;5.724;2023-07-30T12:16:46;4.05;;;0.90;;
81312;SDS011;70780;52.722;5.724;2023-07-30T12:19:18;1.85;;;0.50;;
81312;SDS011;70780;52.722;5.724;2023-07-30T12:21:47;3.60;;;0.60;;
81312;SDS011;70780;52.722;5.724;2023-07-30T12:24:16;3.75;;;0.60;;
81312;SDS011;70780;52.722;5.724;2023-07-30T12:26:47;2.65;;;0.43;;
81312;SDS011;70780;52.722;5.724;2023-07-30T12:29:17;3.78;;;0.52;;
81312;SDS011;70780;52.722;5.724;2023-07-30T12:31:46;2.47;;;0.70;;
81312;SDS011;70780;52.722;5.724;2023-07-30T19:51:29;3.17;;;1.10;;
81312;SDS011;70780;52.722;5.724;2023-07-30T19:53:58;2.42;;;0.75;;
81312;SDS011;70780;52.722;5.724;2023-07-30T19:56:28;4.35;;;1.35;;
81312;SDS011;70780;52.722;5.724;2023-07-30T19:58:57;1.75;;;0.70;;
81312;SDS011;70780;52.722;5.724;2023-07-30T20:01:26;1.77;;;0.77;;
81312;SDS011;70780;52.722;5.724;2023-07-30T20:03:55;3.28;;;0.90;;
81312;SDS011;70780;52.722;5.724;2023-07-30T20:06:25;2.22;;;0.88;;
81312;SDS011;70780;52.722;5.724;2023-07-30T20:08:57;1.27;;;0.90;;
81312;SDS011;70780;52.722;5.724;2023-07-30T20:11:26;2.33;;;1.00;;
81312;SDS011;70780;52.722;5.724;2023-07-30T20:13:55;3.17;;;1.15;;
81312;SDS011;70780;52.722;5.724;2023-07-30T20:16:25;2.25;;;0.90;;
81312;SDS011;70780;52.722;5.724;2023-07-30T20:18:54;3.80;;;1.45;;
81312;SDS011;70780;52.722;5.724;2023-07-30T20:21:23;1.73;;;0.75;;
81312;SDS011;70780;52.722;5.724;2023-07-30T20:23:53;2.92;;;1.25;;
81312;SDS011;70780;52.722;5.724;2023-07-30T20:26:25;1.92;;;0.80;;
81312;SDS011;70780;52.722;5.724;2023-07-30T20:28:54;1.70;;;0.80;;
81312;SDS011;70780;52.722;5.724;2023-07-30T20:31:26;2.17;;;0.95;;
81312;SDS011;70780;52.722;5.724;2023-07-30T20:33:57;2.85;;;0.90;;
81312;SDS011;70780;52.722;5.724;2023-07-30T20:36:27;2.20;;;0.90;;
81312;SDS011;70780;52.722;5.724;2023-07-30T20:38:56;2.25;;;0.90;;
81312;SDS011;70780;52.722;5.724;2023-07-30T20:41:28;3.67;;;1.20;;
81312;SDS011;70780;52.722;5.724;2023-07-30T20:43:57;1.77;;;0.90;;
81312;SDS011;70780;52.722;5.724;2023-07-30T20:46:27;2.40;;;1.25;;
81312;SDS011;70780;52.722;5.724;2023-07-30T20:48:56;2.13;;;1.00;;
81312;SDS011;70780;52.722;5.724;2023-07-30T20:51:25;2.70;;;0.70;;
81312;SDS011;70780;52.722;5.724;2023-07-30T20:53:55;2.88;;;0.80;;
81312;SDS011;70780;52.722;5.724;2023-07-30T20:56:24;2.00;;;0.77;;
